createdAt,value
2018-08-09T00:01:26.711Z,19.97
2018-08-09T00:03:54.615Z,19.00
2018-08-09T00:06:22.494Z,23.80
2018-08-09T00:08:50.453Z,20.53
2018-08-09T00:11:18.365Z,23.57
2018-08-09T00:13:46.236Z,21.33
2018-08-09T00:16:14.171Z,29.17
2018-08-09T00:18:42.058Z,24.80
2018-08-09T00:21:10.026Z,19.20
2018-08-09T00:23:37.932Z,26.70
2018-08-09T00:26:05.948Z,17.67
2018-08-09T00:28:33.796Z,21.03
2018-08-09T00:31:01.684Z,20.93
2018-08-09T00:33:29.521Z,31.17
2018-08-09T00:35:57.394Z,24.30
2018-08-09T00:38:25.378Z,26.33
2018-08-09T00:40:53.276Z,21.13
2018-08-09T00:43:21.256Z,24.33
2018-08-09T00:45:49.126Z,23.73
2018-08-09T00:48:17.741Z,21.73
2018-08-09T00:50:45.599Z,24.00
2018-08-09T00:53:13.523Z,25.23
2018-08-09T00:55:41.352Z,19.50
2018-08-09T00:58:09.322Z,24.20
2018-08-09T01:00:37.197Z,25.60
2018-08-09T01:03:05.143Z,19.27
2018-08-09T01:05:33.074Z,21.87
2018-08-09T01:08:00.941Z,19.27
2018-08-09T01:10:28.833Z,24.27
2018-08-09T01:12:57.321Z,19.80
2018-08-09T01:15:25.178Z,25.60
2018-08-09T01:17:53.111Z,22.43
2018-08-09T01:20:21.078Z,20.33
2018-08-09T01:22:48.967Z,24.37
2018-08-09T01:25:16.837Z,25.33
2018-08-09T01:27:44.768Z,18.43
2018-08-09T01:30:13.157Z,19.30
2018-08-09T01:32:41.101Z,18.67
2018-08-09T01:35:08.932Z,16.97
2018-08-09T01:37:36.944Z,20.60
2018-08-09T01:40:05.197Z,25.03
2018-08-09T01:42:38.694Z,25.37
2018-08-09T01:45:06.585Z,25.00
2018-08-09T01:47:34.527Z,17.03
2018-08-09T01:50:02.637Z,20.13
2018-08-09T01:52:30.550Z,19.63
2018-08-09T01:54:58.489Z,21.27
2018-08-09T01:57:26.344Z,18.30
2018-08-09T01:59:54.295Z,23.60
2018-08-09T02:02:22.164Z,26.87
2018-08-09T02:04:50.199Z,21.27
2018-08-09T02:07:18.018Z,22.47
2018-08-09T02:09:45.902Z,19.00
2018-08-09T02:12:14.346Z,27.97
2018-08-09T02:14:42.164Z,25.50
2018-08-09T02:17:10.038Z,23.90
2018-08-09T02:19:37.929Z,23.83
2018-08-09T02:22:05.849Z,23.17
2018-08-09T02:24:33.706Z,27.50
2018-08-09T02:27:01.675Z,30.10
2018-08-09T02:29:29.567Z,22.00
2018-08-09T02:31:58.168Z,31.03
2018-08-09T02:34:26.055Z,23.37
2018-08-09T02:36:53.963Z,27.80
2018-08-09T02:39:22.679Z,28.03
2018-08-09T02:41:50.543Z,26.13
2018-08-09T02:44:18.425Z,26.00
2018-08-09T02:46:46.359Z,24.43
2018-08-09T02:49:14.179Z,24.33
2018-08-09T02:51:42.114Z,28.30
2018-08-09T02:54:10.008Z,24.00
2018-08-09T02:56:37.956Z,25.80
2018-08-09T02:59:05.862Z,27.30
2018-08-09T03:01:33.804Z,33.43
2018-08-09T03:04:01.711Z,29.43
2018-08-09T03:06:29.562Z,28.60
2018-08-09T03:08:57.460Z,24.67
2018-08-09T03:11:25.318Z,28.80
2018-08-09T03:13:53.180Z,23.43
2018-08-09T03:16:21.126Z,30.87
2018-08-09T03:18:49.024Z,35.17
2018-08-09T03:21:16.904Z,26.60
2018-08-09T03:23:44.812Z,27.73
2018-08-09T03:26:12.785Z,29.17
2018-08-09T03:28:40.681Z,24.77
2018-08-09T03:31:08.807Z,28.70
2018-08-09T03:33:36.780Z,28.40
2018-08-09T03:36:04.860Z,30.43
2018-08-09T03:38:33.307Z,30.23
2018-08-09T03:41:01.238Z,32.23
2018-08-09T03:43:30.099Z,29.03
2018-08-09T03:45:57.994Z,27.00
2018-08-09T03:48:25.893Z,26.50
2018-08-09T03:50:53.906Z,29.17
2018-08-09T03:53:21.921Z,32.80
2018-08-09T03:55:49.839Z,29.17
2018-08-09T03:58:17.755Z,38.63
2018-08-09T04:00:45.711Z,27.40
2018-08-09T04:05:40.943Z,32.03
2018-08-09T04:08:08.865Z,25.97
2018-08-09T04:10:36.758Z,29.85
2018-08-09T04:13:04.623Z,33.20
2018-08-09T04:15:32.722Z,32.40
2018-08-09T04:18:00.682Z,25.63
2018-08-09T04:20:28.573Z,28.37
2018-08-09T04:22:56.770Z,36.80
2018-08-09T04:25:24.613Z,33.17
2018-08-09T04:27:52.723Z,29.57
2018-08-09T04:30:20.614Z,26.15
2018-08-09T04:32:48.696Z,29.77
2018-08-09T04:35:16.749Z,29.43
2018-08-09T04:37:44.719Z,28.27
2018-08-09T04:40:12.702Z,35.53
2018-08-09T04:42:40.668Z,25.93
2018-08-09T04:45:09.216Z,30.03
2018-08-09T04:47:37.562Z,23.73
2018-08-09T04:50:05.593Z,27.70
2018-08-09T04:52:33.551Z,27.25
2018-08-09T04:55:01.509Z,23.83
2018-08-09T04:57:29.501Z,26.93
2018-08-09T04:59:57.325Z,24.73
2018-08-09T05:02:25.220Z,25.50
2018-08-09T05:04:53.097Z,25.83
2018-08-09T05:07:21.026Z,25.60
2018-08-09T05:09:48.880Z,27.10
2018-08-09T05:12:16.807Z,24.97
2018-08-09T05:14:44.766Z,24.10
2018-08-09T05:17:12.742Z,29.90
2018-08-09T05:19:40.670Z,22.80
2018-08-09T05:22:08.762Z,22.30
2018-08-09T05:29:28.573Z,16.87
2018-08-09T05:31:56.561Z,19.57
2018-08-09T05:34:24.493Z,19.43
2018-08-09T05:36:52.521Z,18.93
2018-08-09T05:39:20.468Z,20.90
2018-08-09T05:51:36.869Z,20.13
2018-08-09T05:54:05.193Z,21.00
2018-08-09T05:56:33.048Z,15.30
2018-08-09T05:59:01.018Z,19.27
2018-08-09T06:01:29.002Z,18.97
2018-08-09T06:03:57.094Z,16.70
2018-08-09T06:06:24.957Z,16.40
2018-08-09T06:11:19.975Z,17.90
2018-08-09T06:13:47.826Z,18.20
2018-08-09T06:16:15.764Z,25.20
2018-08-09T06:18:43.631Z,17.43
2018-08-09T06:21:11.524Z,23.70
2018-08-09T06:23:39.454Z,15.83
2018-08-09T06:28:34.459Z,14.95
2018-08-09T06:31:02.393Z,20.30
2018-08-09T06:38:24.592Z,15.60
2018-08-09T06:40:52.520Z,15.00
2018-08-09T11:28:51.882Z,18.17
2018-08-09T11:31:19.750Z,14.83
2018-08-09T11:33:47.707Z,14.90
2018-08-09T11:36:15.662Z,16.03
2018-08-09T11:38:43.566Z,18.50
2018-08-09T11:41:11.443Z,14.73
2018-08-09T11:43:39.317Z,16.70
2018-08-09T11:46:07.144Z,18.43
2018-08-09T11:48:35.023Z,21.17
2018-08-09T11:51:02.916Z,15.40
2018-08-09T11:53:30.801Z,14.50
2018-08-09T11:55:58.730Z,14.23
2018-08-09T11:58:26.613Z,14.90
2018-08-09T12:00:54.554Z,13.90
2018-08-09T12:03:22.553Z,14.33
2018-08-09T12:05:50.575Z,11.90
2018-08-09T12:08:18.476Z,12.87
2018-08-09T12:10:46.328Z,12.03
2018-08-09T12:13:14.331Z,16.60
2018-08-09T12:15:42.315Z,15.53
2018-08-09T12:18:10.178Z,13.70
2018-08-09T12:20:38.114Z,13.97
2018-08-09T12:23:06.017Z,16.90
2018-08-09T12:25:33.936Z,18.80
2018-08-09T12:28:01.765Z,15.27
2018-08-09T12:30:29.748Z,15.23
2018-08-09T12:32:57.616Z,16.30
2018-08-09T12:35:25.550Z,12.33
2018-08-09T12:37:53.377Z,13.50
2018-08-09T12:40:21.180Z,12.50
2018-08-09T12:42:49.090Z,14.80
2018-08-09T12:45:17.080Z,14.10
2018-08-09T12:47:44.946Z,11.95
2018-08-09T12:50:13.881Z,11.93
2018-08-09T12:52:43.064Z,9.00
2018-08-09T12:55:11.646Z,10.00
2018-08-09T12:57:39.515Z,10.00
2018-08-09T13:00:08.909Z,12.43
2018-08-09T13:05:08.269Z,8.43
2018-08-09T13:14:57.562Z,12.20
2018-08-09T13:17:25.470Z,14.33
2018-08-09T17:44:41.725Z,11.60
2018-08-09T17:47:09.756Z,13.90
2018-08-09T17:49:37.617Z,14.67
2018-08-09T17:52:05.661Z,16.27
2018-08-09T17:57:00.662Z,21.07
2018-08-09T17:59:28.540Z,13.30
2018-08-09T18:01:56.386Z,14.07
2018-08-09T18:04:24.303Z,15.70
2018-08-09T18:09:20.539Z,22.23
2018-08-09T18:11:48.440Z,17.83
2018-08-09T18:14:16.367Z,18.77
2018-08-09T18:16:44.226Z,14.83
2018-08-09T18:19:12.073Z,11.77
2018-08-09T18:21:40.043Z,16.27
2018-08-09T18:24:08.054Z,19.30
2018-08-09T18:26:35.862Z,20.93
2018-08-09T18:29:03.843Z,14.10
2018-08-09T18:31:31.735Z,19.03
2018-08-09T18:33:59.599Z,19.93
2018-08-09T18:36:27.568Z,15.03
2018-08-09T18:38:55.483Z,16.07
2018-08-09T18:41:23.475Z,13.47
2018-08-09T18:43:51.381Z,20.00
2018-08-09T18:46:19.388Z,18.43
2018-08-09T18:48:47.302Z,20.37
2018-08-09T18:51:15.193Z,18.40
2018-08-09T18:53:43.107Z,20.07
2018-08-09T18:56:10.982Z,17.40
2018-08-09T18:58:38.843Z,17.60
2018-08-09T19:01:06.807Z,18.00
2018-08-09T19:03:34.725Z,17.43
2018-08-09T19:06:02.547Z,15.90
2018-08-09T19:08:30.483Z,15.20
2018-08-09T19:10:58.370Z,15.73
2018-08-09T19:13:26.359Z,26.20
2018-08-09T19:15:54.203Z,14.93
2018-08-09T19:18:22.163Z,17.80
2018-08-09T19:20:50.023Z,14.90
2018-08-09T19:23:17.930Z,18.03
2018-08-09T19:25:45.805Z,11.47
2018-08-09T19:28:15.017Z,15.43
2018-08-09T19:30:42.950Z,17.63
2018-08-09T19:33:11.121Z,17.63
2018-08-09T19:35:39.086Z,16.50
2018-08-09T19:38:06.952Z,11.33
2018-08-09T19:40:34.846Z,19.03
2018-08-09T19:43:02.722Z,12.43
2018-08-09T19:45:30.583Z,14.20
2018-08-09T19:47:58.486Z,12.30
2018-08-09T19:50:26.482Z,12.50
2018-08-09T19:52:54.429Z,15.37
2018-08-09T19:55:23.920Z,12.60
2018-08-09T19:57:51.993Z,14.80
2018-08-09T20:00:20.747Z,13.00
2018-08-09T20:02:49.789Z,19.43
2018-08-09T20:05:17.798Z,26.20
2018-08-09T20:07:45.710Z,17.93
2018-08-09T20:10:14.201Z,16.97
2018-08-09T20:12:42.644Z,14.37
2018-08-09T20:15:13.402Z,15.70
2018-08-09T20:17:41.225Z,12.10
2018-08-09T20:22:36.574Z,17.15
2018-08-09T20:25:05.113Z,14.83
2018-08-09T20:27:33.115Z,11.73
2018-08-09T20:33:32.564Z,13.17
2018-08-09T20:36:00.438Z,20.37
2018-08-09T20:38:28.439Z,14.27
2018-08-09T20:40:56.374Z,16.50
2018-08-09T20:43:24.316Z,18.93
2018-08-09T20:45:52.233Z,17.83
2018-08-09T20:48:20.062Z,16.27
2018-08-09T20:50:47.959Z,15.07
2018-08-09T20:53:15.876Z,21.40
2018-08-09T20:55:43.838Z,58.45
2018-08-09T20:58:11.596Z,34.50
2018-08-09T21:00:39.493Z,32.23
2018-08-09T21:03:07.408Z,22.73
2018-08-09T21:05:38.383Z,26.80
2018-08-09T21:08:06.387Z,21.57
2018-08-09T21:10:34.532Z,24.10
2018-08-09T21:13:02.638Z,22.13
2018-08-09T21:15:30.917Z,31.80
2018-08-09T21:17:58.806Z,27.13
2018-08-09T21:20:26.792Z,31.10
2018-08-09T21:22:54.721Z,38.90
2018-08-09T21:25:22.730Z,37.07
2018-08-09T21:27:50.666Z,29.50
2018-08-09T21:30:19.963Z,31.23
2018-08-09T21:32:48.517Z,39.70
2018-08-09T21:35:17.229Z,31.07
2018-08-09T21:37:45.506Z,30.90
2018-08-09T21:40:14.395Z,33.10
2018-08-09T21:42:42.278Z,31.97
2018-08-09T21:45:11.483Z,29.97
2018-08-09T21:47:39.347Z,32.87
2018-08-09T21:50:08.429Z,31.53
2018-08-09T21:52:36.331Z,29.63
2018-08-09T21:55:04.506Z,26.23
2018-08-09T21:57:32.425Z,26.73
2018-08-09T22:00:00.395Z,31.13
2018-08-09T22:02:28.443Z,30.87
2018-08-09T22:05:59.945Z,27.85
2018-08-09T22:08:33.266Z,31.70
2018-08-09T22:11:06.841Z,35.50
2018-08-09T22:13:40.183Z,30.95
2018-08-09T22:16:13.683Z,30.20
2018-08-09T22:18:47.067Z,38.30
2018-08-09T22:21:20.486Z,31.63
2018-08-09T22:23:48.705Z,28.50
2018-08-09T22:26:16.616Z,32.20
2018-08-09T22:31:12.659Z,27.43
2018-08-09T22:33:40.538Z,26.77
2018-08-09T22:36:08.457Z,28.70
2018-08-09T22:38:36.449Z,27.13
2018-08-09T22:41:04.404Z,23.70
2018-08-09T22:43:32.292Z,25.20
2018-08-09T22:46:00.185Z,21.40
2018-08-09T22:48:28.148Z,24.37
2018-08-09T22:50:56.033Z,21.13
2018-08-09T22:53:23.951Z,22.13
2018-08-09T22:55:51.842Z,25.07
2018-08-09T22:58:19.827Z,27.77
2018-08-09T23:00:47.968Z,26.00
2018-08-09T23:03:15.873Z,25.30
2018-08-09T23:05:43.821Z,27.67
2018-08-09T23:08:13.962Z,25.60
2018-08-09T23:10:42.677Z,27.90
2018-08-09T23:13:11.507Z,32.83
2018-08-09T23:15:39.828Z,31.47
2018-08-09T23:18:08.166Z,28.57
2018-08-09T23:20:36.024Z,24.77
2018-08-09T23:23:03.969Z,27.50
2018-08-09T23:25:31.857Z,25.00
2018-08-09T23:27:59.717Z,24.80
2018-08-09T23:30:27.625Z,28.53
2018-08-09T23:32:55.525Z,21.70
2018-08-09T23:35:23.397Z,23.70
2018-08-09T23:37:51.317Z,25.17
2018-08-09T23:40:19.168Z,20.60
2018-08-09T23:42:47.053Z,21.70
2018-08-09T23:45:14.995Z,22.80
2018-08-09T23:47:42.929Z,24.10
2018-08-09T23:50:11.941Z,24.00
2018-08-09T23:52:40.454Z,25.00
2018-08-09T23:55:09.265Z,21.43
2018-08-09T23:57:37.162Z,24.60
